Time;durP1;ratioP1;P1;durP2;ratioP2;P2;SDS_P1;SDS_P2;PMS_P1;PMS_P2;Temp;Humidity;BMP_temperature;BMP_pressure;BME280_temperature;BME280_humidity;BME280_pressure;Samples;Min_cycle;Max_cycle;Signal;HPM_P1;HPM_P2
2021/05/17 00:02:06;;;;;;;4.18;1.77;;;16.30;75.50;;;;;;5009760;28;20057;-70
2021/05/17 00:04:35;;;;;;;3.88;1.75;;;16.30;75.60;;;;;;4991804;28;20465;-71
2021/05/17 00:07:03;;;;;;;4.75;1.65;;;16.30;75.60;;;;;;4991749;28;20073;-71
2021/05/17 00:09:30;;;;;;;4.22;1.67;;;16.40;75.70;;;;;;4994961;28;20030;-72
2021/05/17 00:11:56;;;;;;;4.63;2.05;;;16.30;75.60;;;;;;4997826;28;20041;-73
2021/05/17 00:14:24;;;;;;;5.63;2.00;;;16.30;75.60;;;;;;4993122;28;20036;-73
2021/05/17 00:16:50;;;;;;;4.45;1.73;;;16.30;75.60;;;;;;5014978;28;20026;-72
2021/05/17 00:19:16;;;;;;;5.70;1.90;;;16.30;75.60;;;;;;4996333;28;20057;-70
2021/05/17 00:21:42;;;;;;;5.63;2.05;;;16.30;75.60;;;;;;4988489;28;20033;-71
2021/05/17 00:24:09;;;;;;;4.38;1.90;;;16.30;75.60;;;;;;4980994;28;20057;-71
2021/05/17 00:26:35;;;;;;;4.30;1.88;;;16.20;75.70;;;;;;4982167;28;20030;-70
2021/05/17 00:29:01;;;;;;;3.78;1.83;;;16.20;75.70;;;;;;5003812;28;20032;-72
2021/05/17 00:31:27;;;;;;;5.93;2.05;;;16.20;75.70;;;;;;5002401;28;20109;-71
2021/05/17 00:33:52;;;;;;;6.47;1.80;;;16.20;75.70;;;;;;5008633;28;20073;-71
2021/05/17 00:36:19;;;;;;;5.03;1.90;;;16.20;75.80;;;;;;4994781;28;20397;-71
2021/05/17 00:38:44;;;;;;;4.90;1.65;;;16.20;75.70;;;;;;4978628;28;20026;-71
2021/05/17 00:41:10;;;;;;;4.63;1.73;;;16.20;75.70;;;;;;4994554;28;20533;-71
2021/05/17 00:43:37;;;;;;;4.05;1.75;;;16.20;75.70;;;;;;4994452;28;20482;-72
2021/05/17 00:46:05;;;;;;;3.78;1.85;;;16.20;75.70;;;;;;4994338;28;20018;-71
2021/05/17 00:48:31;;;;;;;4.50;1.77;;;16.20;75.70;;;;;;4977160;28;20026;-71
2021/05/17 00:50:57;;;;;;;4.05;1.60;;;16.20;75.70;;;;;;4976923;28;20080;-71
2021/05/17 00:53:22;;;;;;;4.88;1.80;;;16.10;75.60;;;;;;4994302;28;20022;-72
2021/05/17 00:55:49;;;;;;;4.10;1.52;;;16.10;75.70;;;;;;4993898;28;20032;-72
2021/05/17 00:58:15;;;;;;;6.75;1.70;;;16.10;75.70;;;;;;4977166;28;20023;-72
2021/05/17 01:00:42;;;;;;;4.13;2.00;;;16.10;75.70;;;;;;4994149;28;20033;-71
2021/05/17 01:03:09;;;;;;;5.25;1.85;;;16.10;75.70;;;;;;4977107;28;20026;-72
2021/05/17 01:05:35;;;;;;;4.68;1.80;;;16.10;75.60;;;;;;4993769;28;20037;-71
2021/05/17 01:08:02;;;;;;;2.97;1.45;;;16.10;75.60;;;;;;4976303;28;20533;-71
2021/05/17 01:10:30;;;;;;;5.75;1.85;;;16.10;75.60;;;;;;4976674;28;20034;-71
2021/05/17 01:12:56;;;;;;;3.58;1.45;;;16.10;75.70;;;;;;4993589;28;20433;-71
2021/05/17 01:15:21;;;;;;;3.55;1.58;;;16.10;75.60;;;;;;4993938;28;20030;-72
2021/05/17 01:17:47;;;;;;;2.90;1.60;;;16.10;75.60;;;;;;4994001;28;20068;-72
2021/05/17 01:20:18;;;;;;;3.65;1.70;;;16.10;75.50;;;;;;4993952;28;20030;-71
2021/05/17 01:23:49;;;;;;;4.40;1.70;;;16.10;75.60;;;;;;4976713;28;20022;-72
2021/05/17 01:25:40;;;;;;;4.07;1.83;;;16.10;75.60;;;;;;4984374;28;20061;-72
2021/05/17 01:28:07;;;;;;;4.13;1.65;;;16.10;75.60;;;;;;4976371;28;20026;-72
2021/05/17 01:30:33;;;;;;;4.03;1.70;;;16.10;75.60;;;;;;4993471;28;20034;-71
2021/05/17 01:32:58;;;;;;;4.50;1.77;;;16.10;75.60;;;;;;4976171;28;20482;-72
2021/05/17 01:35:25;;;;;;;5.10;1.95;;;16.10;75.70;;;;;;4976082;28;20480;-72
2021/05/17 01:37:51;;;;;;;4.00;1.77;;;16.10;75.60;;;;;;4994423;28;20117;-72
2021/05/17 01:40:19;;;;;;;4.97;2.10;;;16.00;75.60;;;;;;5000052;28;20393;-72
2021/05/17 01:42:45;;;;;;;5.72;1.92;;;16.00;75.70;;;;;;5004018;28;20389;-72
2021/05/17 01:45:12;;;;;;;4.03;2.03;;;16.00;75.80;;;;;;4993530;28;20025;-72
2021/05/17 01:47:40;;;;;;;5.38;1.83;;;16.00;75.80;;;;;;5012848;28;20042;-72
2021/05/17 01:50:08;;;;;;;4.70;1.80;;;16.00;75.90;;;;;;5011455;28;20366;-72
2021/05/17 01:52:36;;;;;;;4.45;1.70;;;16.00;75.90;;;;;;4993591;28;20397;-71
2021/05/17 01:55:05;;;;;;;4.55;1.83;;;16.00;75.90;;;;;;5004259;28;20160;-72
2021/05/17 01:57:31;;;;;;;4.10;1.83;;;16.00;75.90;;;;;;4999139;28;20026;-72
2021/05/17 01:59:57;;;;;;;4.40;2.00;;;16.00;76.00;;;;;;4994676;28;20393;-71
2021/05/17 02:02:22;;;;;;;5.00;1.80;;;16.00;76.00;;;;;;5021870;28;20032;-72
2021/05/17 02:04:49;;;;;;;3.65;1.80;;;16.00;76.10;;;;;;5018074;28;20034;-72
2021/05/17 02:07:14;;;;;;;4.97;1.85;;;16.00;76.00;;;;;;4993368;28;20545;-71
2021/05/17 02:09:41;;;;;;;3.38;1.75;;;16.00;76.10;;;;;;4976895;28;20034;-72
2021/05/17 02:12:07;;;;;;;5.20;1.77;;;15.90;76.00;;;;;;4993196;28;20089;-72
2021/05/17 02:14:35;;;;;;;5.65;1.85;;;16.00;76.00;;;;;;4992422;28;20030;-71
2021/05/17 02:17:01;;;;;;;5.43;2.13;;;15.90;76.00;;;;;;4984834;28;20029;-72
2021/05/17 02:19:26;;;;;;;5.82;2.00;;;15.90;76.00;;;;;;5005466;28;20031;-72
2021/05/17 02:21:53;;;;;;;3.42;2.00;;;15.90;76.10;;;;;;4992970;28;20038;-71
2021/05/17 02:24:19;;;;;;;5.03;2.28;;;15.90;76.00;;;;;;4997233;28;20030;-70
2021/05/17 02:26:45;;;;;;;5.05;2.00;;;15.90;76.10;;;;;;5002288;28;20041;-70
2021/05/17 02:29:11;;;;;;;4.43;1.80;;;15.90;76.20;;;;;;4982541;28;20696;-70
2021/05/17 02:31:37;;;;;;;3.95;1.88;;;15.80;76.20;;;;;;4981295;28;20065;-70
2021/05/17 02:34:04;;;;;;;6.05;1.90;;;15.90;76.30;;;;;;5003900;28;20105;-70
2021/05/17 02:36:30;;;;;;;5.65;1.90;;;15.80;76.30;;;;;;4992512;28;20038;-72
2021/05/17 02:38:55;;;;;;;5.60;2.20;;;15.90;76.40;;;;;;4992819;28;20030;-70
2021/05/17 02:41:22;;;;;;;4.13;2.10;;;15.80;76.40;;;;;;4992583;28;20030;-71
2021/05/17 02:43:48;;;;;;;4.40;2.10;;;15.80;76.40;;;;;;4974638;28;20509;-72
2021/05/17 02:46:15;;;;;;;3.70;1.80;;;15.90;76.40;;;;;;4974902;28;20121;-72
2021/05/17 02:48:42;;;;;;;4.25;1.95;;;15.90;76.40;;;;;;4992450;28;20032;-72
2021/05/17 02:51:12;;;;;;;4.13;2.10;;;15.80;76.40;;;;;;4992364;28;20041;-72
2021/05/17 02:53:37;;;;;;;4.75;1.95;;;15.80;76.40;;;;;;4991909;28;20062;-72
2021/05/17 02:56:11;;;;;;;3.95;2.03;;;15.80;76.40;;;;;;4991870;28;20029;-71
2021/05/17 02:58:41;;;;;;;3.92;2.15;;;15.80;76.40;;;;;;4992429;28;20470;-71
2021/05/17 03:01:09;;;;;;;3.83;2.13;;;15.80;76.30;;;;;;4992117;28;20038;-71
2021/05/17 03:03:42;;;;;;;3.58;1.85;;;15.80;76.30;;;;;;4991960;28;20106;-71
2021/05/17 03:06:26;;;;;;;4.93;2.10;;;15.80;76.30;;;;;;4992249;28;20030;-71
2021/05/17 03:09:01;;;;;;;3.28;1.90;;;15.80;76.40;;;;;;4975033;28;20053;-71
2021/05/17 03:11:31;;;;;;;4.32;2.10;;;15.80;76.50;;;;;;4991989;28;20077;-71
2021/05/17 03:13:58;;;;;;;3.67;2.15;;;15.80;76.40;;;;;;4973965;28;20452;-71
2021/05/17 03:16:26;;;;;;;3.92;1.80;;;15.80;76.50;;;;;;4991958;28;20030;-71
2021/05/17 03:18:56;;;;;;;5.13;2.13;;;15.80;76.40;;;;;;4992329;28;20022;-73
2021/05/17 03:21:24;;;;;;;5.25;1.90;;;15.80;76.40;;;;;;4974515;28;20029;-71
2021/05/17 03:23:51;;;;;;;5.22;2.28;;;15.80;76.30;;;;;;4991763;28;20030;-71
2021/05/17 03:26:18;;;;;;;3.78;2.00;;;15.80;76.30;;;;;;4991437;28;20050;-72
2021/05/17 03:28:44;;;;;;;5.43;2.00;;;15.80;76.40;;;;;;4992243;28;20073;-71
2021/05/17 03:31:09;;;;;;;5.03;2.20;;;15.80;76.90;;;;;;4991612;28;20509;-72
2021/05/17 03:33:35;;;;;;;4.90;2.30;;;15.80;76.40;;;;;;4991318;28;20066;-71
2021/05/17 03:36:01;;;;;;;5.18;2.25;;;15.80;76.30;;;;;;4992454;28;20057;-72
2021/05/17 03:38:26;;;;;;;3.75;2.13;;;15.80;76.40;;;;;;4998846;28;20022;-72
2021/05/17 03:40:52;;;;;;;4.50;2.00;;;15.70;76.20;;;;;;4983449;28;20027;-72
2021/05/17 03:43:18;;;;;;;4.88;2.30;;;15.80;76.20;;;;;;4974123;28;20023;-70
2021/05/17 03:45:43;;;;;;;4.63;2.20;;;15.80;76.20;;;;;;4995379;28;20068;-71
2021/05/17 03:48:09;;;;;;;4.82;2.03;;;15.80;76.10;;;;;;4995676;28;20392;-71
2021/05/17 03:50:34;;;;;;;4.90;2.17;;;15.80;76.00;;;;;;4978410;28;20034;-71
2021/05/17 03:53:00;;;;;;;4.82;2.60;;;15.90;75.90;;;;;;4997004;28;20034;-71
2021/05/17 03:55:26;;;;;;;3.90;2.05;;;15.90;75.80;;;;;;4997085;28;20544;-71
2021/05/17 03:57:55;;;;;;;3.85;2.22;;;15.90;75.70;;;;;;4997807;28;20076;-71
2021/05/17 04:00:20;;;;;;;4.93;2.05;;;15.90;75.60;;;;;;4989161;28;20034;-71
2021/05/17 04:02:46;;;;;;;4.47;2.10;;;15.90;75.60;;;;;;5002335;28;20084;-71
2021/05/17 04:15:40;;;;;;;5.45;2.08;;;15.80;75.60;;;;;;5004377;28;20045;-72
2021/05/17 04:18:06;;;;;;;4.15;1.90;;;15.90;75.80;;;;;;4981721;28;20030;-71
2021/05/17 04:20:32;;;;;;;5.40;2.00;;;15.90;75.80;;;;;;4996404;28;20478;-70
2021/05/17 04:22:57;;;;;;;4.47;1.98;;;15.90;75.70;;;;;;4996460;28;20482;-71
2021/05/17 04:25:24;;;;;;;4.85;2.03;;;15.90;75.80;;;;;;5002696;28;20030;-71
2021/05/17 04:27:49;;;;;;;4.00;2.10;;;15.90;75.70;;;;;;5012320;28;20521;-71
2021/05/17 04:30:15;;;;;;;4.43;2.10;;;15.90;75.70;;;;;;5000502;28;20043;-71
2021/05/17 04:32:41;;;;;;;3.80;1.80;;;15.90;75.80;;;;;;4997361;28;20405;-71
2021/05/17 04:35:07;;;;;;;4.82;2.10;;;15.90;75.80;;;;;;4995676;28;20081;-71
2021/05/17 04:37:32;;;;;;;3.58;1.85;;;15.90;75.60;;;;;;4994952;28;20026;-71
2021/05/17 04:39:58;;;;;;;3.80;1.80;;;15.90;75.60;;;;;;4996124;28;20175;-72
2021/05/17 04:42:23;;;;;;;6.50;1.98;;;15.90;75.80;;;;;;5005653;28;20036;-71
2021/05/17 04:44:49;;;;;;;6.45;1.92;;;15.90;75.80;;;;;;5012442;28;20026;-71
2021/05/17 04:47:14;;;;;;;7.82;2.08;;;15.90;75.80;;;;;;4990692;28;20927;-72
2021/05/17 04:49:40;;;;;;;5.35;2.00;;;15.90;75.90;;;;;;4997797;28;20032;-70
2021/05/17 04:52:06;;;;;;;6.20;2.10;;;15.90;75.90;;;;;;4986400;28;20044;-72
2021/05/17 04:54:31;;;;;;;4.40;2.05;;;15.90;76.00;;;;;;5005745;28;20038;-70
2021/05/17 04:56:57;;;;;;;8.68;2.00;;;15.90;75.90;;;;;;4994987;28;20370;-74
2021/05/17 04:59:22;;;;;;;4.50;1.90;;;16.00;75.90;;;;;;4989365;28;20572;-70
2021/05/17 05:01:48;;;;;;;5.75;1.92;;;15.90;75.80;;;;;;4996102;28;20405;-72
2021/05/17 05:04:13;;;;;;;6.18;2.00;;;15.90;75.80;;;;;;5026295;28;20044;-72
2021/05/17 05:06:39;;;;;;;5.97;1.95;;;15.90;75.70;;;;;;5021546;28;20026;-70
2021/05/17 05:09:05;;;;;;;4.28;1.92;;;16.00;75.90;;;;;;5007353;28;20034;-71
2021/05/17 05:11:30;;;;;;;7.90;2.33;;;16.00;75.80;;;;;;4985518;28;20092;-70
2021/05/17 05:13:56;;;;;;;12.52;2.50;;;15.90;75.70;;;;;;5006282;28;20034;-71
2021/05/17 05:16:21;;;;;;;4.88;2.20;;;16.00;76.40;;;;;;4979690;28;20112;-70
2021/05/17 05:18:47;;;;;;;15.35;2.70;;;16.00;76.30;;;;;;4981487;28;20042;-72
2021/05/17 05:21:12;;;;;;;5.97;2.10;;;16.00;76.40;;;;;;5006075;28;20457;-71
2021/05/17 05:23:38;;;;;;;8.18;2.40;;;16.00;76.00;;;;;;4983550;28;20061;-73
2021/05/17 05:31:43;;;;;;;8.23;2.97;;;16.10;75.70;;;;;;4986388;28;20096;-72
2021/05/17 05:34:09;;;;;;;10.30;3.10;;;16.10;75.80;;;;;;4996879;28;20060;-67
2021/05/17 05:36:34;;;;;;;9.80;2.30;;;16.20;75.90;;;;;;4991534;28;20060;-68
2021/05/17 05:39:00;;;;;;;7.03;2.80;;;16.20;75.80;;;;;;4997974;28;20030;-72
2021/05/17 05:41:26;;;;;;;7.30;2.30;;;16.20;75.80;;;;;;5003589;28;20025;-70
2021/05/17 05:43:52;;;;;;;7.57;2.47;;;16.20;75.80;;;;;;5008853;28;20079;-70
2021/05/17 05:46:17;;;;;;;6.38;2.50;;;16.20;75.60;;;;;;5008987;28;20034;-70
2021/05/17 05:48:49;;;;;;;9.07;2.75;;;16.20;75.60;;;;;;5010682;28;20077;-71
2021/05/17 05:51:17;;;;;;;9.50;2.40;;;16.20;75.20;;;;;;5006757;28;20026;-70
2021/05/17 05:53:43;;;;;;;7.28;2.30;;;16.30;75.50;;;;;;5005453;28;20481;-69
2021/05/17 05:56:08;;;;;;;5.55;2.20;;;16.20;75.00;;;;;;5009613;28;20517;-72
2021/05/17 05:58:34;;;;;;;6.93;2.22;;;16.20;75.30;;;;;;4995592;28;20025;-69
2021/05/17 06:01:01;;;;;;;9.82;2.60;;;16.30;75.60;;;;;;4994046;28;20421;-72
2021/05/17 06:03:26;;;;;;;5.95;2.40;;;16.20;75.60;;;;;;5012181;28;20050;-70
2021/05/17 06:05:52;;;;;;;5.13;1.83;;;16.30;75.50;;;;;;4989119;28;20103;-69
2021/05/17 06:08:18;;;;;;;7.43;2.47;;;16.30;75.40;;;;;;5011333;28;20057;-70
2021/05/17 06:10:44;;;;;;;4.45;2.20;;;16.30;75.40;;;;;;5007084;28;20476;-68
2021/05/17 06:13:09;;;;;;;6.50;1.90;;;16.20;75.40;;;;;;5025059;28;20641;-70
2021/05/17 06:15:36;;;;;;;3.85;1.80;;;16.20;75.30;;;;;;5012864;28;20034;-71
2021/05/17 06:18:02;;;;;;;5.95;2.15;;;16.20;75.60;;;;;;4989111;28;20030;-71
2021/05/17 06:20:28;;;;;;;8.82;2.30;;;16.30;75.80;;;;;;4988613;28;20425;-71
2021/05/17 06:22:54;;;;;;;7.03;2.20;;;16.20;75.90;;;;;;4987725;28;20490;-72
2021/05/17 06:25:20;;;;;;;6.20;1.80;;;16.20;76.00;;;;;;5006443;28;20864;-71
2021/05/17 06:27:46;;;;;;;6.82;2.28;;;16.20;76.00;;;;;;4988612;28;20030;-71
2021/05/17 06:30:13;;;;;;;9.70;1.98;;;16.20;75.90;;;;;;4988750;28;20033;-71
2021/05/17 06:32:40;;;;;;;6.90;2.08;;;16.30;75.90;;;;;;5006047;28;20065;-70
2021/05/17 06:35:14;;;;;;;6.50;2.05;;;16.30;75.70;;;;;;5006083;28;20049;-72
2021/05/17 06:37:39;;;;;;;6.28;2.15;;;16.30;75.70;;;;;;5005818;28;20084;-71
2021/05/17 06:40:06;;;;;;;9.57;2.30;;;16.40;75.50;;;;;;4998099;28;20058;-72
2021/05/17 06:42:32;;;;;;;6.28;2.03;;;16.40;75.10;;;;;;5006796;28;20032;-71
2021/05/17 06:44:57;;;;;;;8.77;2.03;;;16.40;75.20;;;;;;5011458;28;20029;-71
2021/05/17 06:47:23;;;;;;;5.60;2.00;;;16.40;75.50;;;;;;5008046;28;20025;-71
2021/05/17 06:49:49;;;;;;;4.10;1.80;;;16.40;75.50;;;;;;5008284;28;20120;-71
2021/05/17 06:52:15;;;;;;;6.72;2.30;;;16.40;75.40;;;;;;5006575;28;20477;-72
2021/05/17 06:54:43;;;;;;;5.95;1.70;;;16.40;75.50;;;;;;5005167;28;20026;-71
2021/05/17 06:57:16;;;;;;;5.70;2.00;;;16.50;74.80;;;;;;5004378;28;20022;-73
2021/05/17 06:59:47;;;;;;;7.13;2.40;;;16.50;75.00;;;;;;4986851;28;20022;-73
2021/05/17 07:02:21;;;;;;;8.85;2.05;;;16.50;75.00;;;;;;4985841;28;20069;-70
2021/05/17 07:04:47;;;;;;;5.63;2.17;;;16.60;75.00;;;;;;5004932;28;20038;-71
2021/05/17 07:07:28;;;;;;;8.00;2.25;;;16.60;74.50;;;;;;4991709;28;20035;-72
2021/05/17 07:12:38;;;;;;;7.70;2.35;;;16.60;74.50;;;;;;5006230;28;20060;-71
2021/05/17 07:15:05;;;;;;;6.22;2.13;;;16.70;74.20;;;;;;5005074;28;20026;-71
2021/05/17 07:17:31;;;;;;;7.07;1.95;;;16.70;74.10;;;;;;5005714;28;20045;-70
2021/05/17 07:19:57;;;;;;;5.97;2.00;;;16.80;72.90;;;;;;5013424;28;20021;-70
2021/05/17 07:25:08;;;;;;;8.05;2.30;;;16.90;73.10;;;;;;5011088;28;20044;-69
2021/05/17 07:27:34;;;;;;;7.78;2.40;;;16.80;73.00;;;;;;5011348;28;20033;-70
2021/05/17 07:29:59;;;;;;;6.35;3.58;;;16.80;73.30;;;;;;4990921;28;20714;-69
2021/05/17 07:32:25;;;;;;;8.23;2.50;;;16.80;74.90;;;;;;5009194;28;20500;-72
2021/05/17 07:34:50;;;;;;;10.55;2.53;;;16.80;74.30;;;;;;4991902;28;20469;-71
2021/05/17 07:37:16;;;;;;;9.88;3.20;;;16.90;74.30;;;;;;5005241;28;20033;-73
2021/05/17 07:39:42;;;;;;;9.00;2.40;;;16.90;74.20;;;;;;5005503;28;20026;-70
2021/05/17 07:42:09;;;;;;;7.10;2.10;;;16.90;73.80;;;;;;5005622;28;20026;-70
2021/05/17 07:44:34;;;;;;;9.27;2.05;;;16.90;73.60;;;;;;4987540;28;20500;-71
2021/05/17 07:47:00;;;;;;;6.47;1.95;;;16.90;73.70;;;;;;4987984;28;20026;-69
2021/05/17 07:49:40;;;;;;;6.85;1.88;;;16.80;73.00;;;;;;4988187;28;20033;-72
2021/05/17 07:52:06;;;;;;;10.00;1.90;;;16.90;73.30;;;;;;4987832;28;20030;-71
2021/05/17 07:54:32;;;;;;;5.88;2.10;;;16.80;73.30;;;;;;5001238;28;20048;-69
2021/05/17 07:56:58;;;;;;;10.57;2.72;;;16.80;73.70;;;;;;5007575;28;20034;-71
2021/05/17 07:59:27;;;;;;;7.05;2.22;;;16.80;74.00;;;;;;5025304;28;20149;-71
2021/05/17 08:01:54;;;;;;;7.10;2.03;;;16.80;74.00;;;;;;5025212;28;20100;-70
2021/05/17 08:04:19;;;;;;;8.48;2.40;;;16.80;73.90;;;;;;5007075;28;20030;-72
2021/05/17 08:06:45;;;;;;;7.60;2.40;;;16.80;73.70;;;;;;5024921;28;20445;-70
2021/05/17 08:09:10;;;;;;;7.63;2.22;;;16.80;73.80;;;;;;5025518;28;20034;-72
2021/05/17 08:11:36;;;;;;;7.68;2.35;;;16.80;74.00;;;;;;5024518;28;20021;-71
2021/05/17 08:14:02;;;;;;;5.85;2.42;;;16.80;73.60;;;;;;5022272;28;20025;-71
2021/05/17 08:16:29;;;;;;;7.43;2.53;;;16.80;74.00;;;;;;5005030;28;20026;-70
2021/05/17 08:18:55;;;;;;;7.90;2.20;;;16.80;73.90;;;;;;4987585;28;20036;-72
2021/05/17 08:21:21;;;;;;;7.82;2.38;;;16.80;74.00;;;;;;5000282;28;20097;-71
2021/05/17 08:23:46;;;;;;;6.65;2.10;;;16.80;73.90;;;;;;5005384;28;20850;-71
2021/05/17 08:26:12;;;;;;;7.90;2.30;;;16.80;73.40;;;;;;5015102;28;20030;-69
2021/05/17 08:28:40;;;;;;;8.45;2.30;;;16.90;73.50;;;;;;5003553;28;20091;-73
2021/05/17 08:31:08;;;;;;;8.13;2.63;;;16.90;73.10;;;;;;4995715;28;20393;-70
2021/05/17 08:33:33;;;;;;;6.53;2.40;;;17.10;72.90;;;;;;5008693;28;20044;-70
2021/05/17 08:36:00;;;;;;;12.73;2.55;;;17.20;72.90;;;;;;5020023;28;20034;-73
2021/05/17 08:38:26;;;;;;;7.60;2.20;;;17.40;71.70;;;;;;5010385;28;20029;-69
2021/05/17 08:40:52;;;;;;;6.38;2.30;;;17.60;70.90;;;;;;5021228;28;20052;-73
2021/05/17 08:43:17;;;;;;;7.35;2.30;;;17.70;69.90;;;;;;5013627;28;20026;-71
2021/05/17 08:45:46;;;;;;;8.65;2.22;;;17.70;70.60;;;;;;5006437;28;20056;-69
2021/05/17 08:48:12;;;;;;;5.43;2.30;;;17.60;69.90;;;;;;5008673;28;20241;-69
2021/05/17 08:50:38;;;;;;;9.27;2.35;;;17.60;70.30;;;;;;4993452;28;20061;-69
2021/05/17 08:53:05;;;;;;;6.38;2.13;;;17.80;69.80;;;;;;5027887;28;20033;-69
2021/05/17 08:55:31;;;;;;;6.95;2.45;;;17.90;69.20;;;;;;5010112;28;20112;-69
2021/05/17 08:57:57;;;;;;;9.63;2.08;;;18.20;68.10;;;;;;5027729;28;20100;-71
2021/05/17 09:00:23;;;;;;;7.65;2.25;;;18.20;68.00;;;;;;5028492;28;20030;-70
2021/05/17 09:02:49;;;;;;;6.80;2.15;;;18.10;67.80;;;;;;4994185;28;20838;-70
2021/05/17 09:05:20;;;;;;;7.03;2.20;;;17.90;68.20;;;;;;5019697;28;20029;-74
2021/05/17 09:07:58;;;;;;;7.57;2.10;;;17.80;68.60;;;;;;5022603;28;20057;-68
2021/05/17 09:10:30;;;;;;;7.80;2.35;;;17.70;69.10;;;;;;5007984;28;20037;-70
2021/05/17 09:13:07;;;;;;;7.57;2.47;;;17.60;69.40;;;;;;5008229;28;20100;-71
2021/05/17 09:15:40;;;;;;;9.07;2.47;;;17.50;69.60;;;;;;4989942;28;20073;-70
2021/05/17 09:18:16;;;;;;;6.95;1.80;;;17.50;69.60;;;;;;5016562;28;20786;-68
2021/05/17 09:20:43;;;;;;;7.90;2.63;;;17.50;70.00;;;;;;5010753;28;20049;-69
2021/05/17 09:23:27;;;;;;;12.43;2.45;;;17.30;69.90;;;;;;4989895;28;20623;-68
2021/05/17 09:26:13;;;;;;;11.13;2.70;;;17.40;70.00;;;;;;4996924;28;20043;-71
2021/05/17 09:28:39;;;;;;;8.07;2.63;;;17.40;70.10;;;;;;4989857;28;20481;-71
2021/05/17 09:31:13;;;;;;;10.05;3.30;;;17.40;70.30;;;;;;5008549;28;20034;-69
2021/05/17 09:33:58;;;;;;;16.00;4.03;;;17.50;70.80;;;;;;5017421;28;20515;-69
2021/05/17 09:36:36;;;;;;;24.23;5.43;;;17.50;70.20;;;;;;5007788;28;20044;-71
2021/05/17 09:39:10;;;;;;;30.35;8.00;;;17.50;70.60;;;;;;4990138;28;20018;-71
2021/05/17 09:41:43;;;;;;;41.35;8.35;;;17.50;70.40;;;;;;5002996;28;20022;-71
2021/05/17 09:44:29;;;;;;;36.97;9.02;;;17.50;70.20;;;;;;5005124;28;20045;-70
2021/05/17 09:47:17;;;;;;;42.30;9.50;;;17.60;70.40;;;;;;5006472;28;20018;-70
2021/05/17 09:49:48;;;;;;;40.60;9.25;;;17.70;70.30;;;;;;5015034;28;20021;-69
2021/05/17 09:52:21;;;;;;;41.15;8.95;;;17.70;70.00;;;;;;5020591;28;20404;-71
2021/05/17 09:55:05;;;;;;;34.67;8.38;;;17.70;70.00;;;;;;5007508;28;20030;-70
2021/05/17 09:57:39;;;;;;;35.75;8.50;;;17.80;70.20;;;;;;4989171;28;20040;-70
2021/05/17 10:00:07;;;;;;;37.38;7.60;;;18.00;69.50;;;;;;5009149;28;20022;-71
2021/05/17 10:02:39;;;;;;;33.83;8.38;;;18.20;68.80;;;;;;5004618;28;20061;-71
2021/05/17 10:05:09;;;;;;;;;;;18.30;69.20;;;;;;4986825;28;20099;-71
2021/05/17 10:07:34;;;;;;;43.17;9.40;;;18.60;68.70;;;;;;4979601;28;19914;-71
2021/05/17 10:10:01;;;;;;;57.58;11.25;;;18.90;67.60;;;;;;4981694;28;20033;-70
2021/05/17 10:12:27;;;;;;;41.45;8.40;;;19.30;66.60;;;;;;5007475;28;20033;-71
2021/05/17 10:14:53;;;;;;;47.92;8.63;;;19.50;65.90;;;;;;5010624;28;20033;-69
2021/05/17 10:17:19;;;;;;;43.58;9.10;;;19.50;64.20;;;;;;5020553;28;20713;-68
2021/05/17 10:19:44;;;;;;;43.78;9.38;;;19.40;64.40;;;;;;4988564;28;20088;-70
2021/05/17 10:22:10;;;;;;;35.35;7.60;;;19.40;64.10;;;;;;4988238;28;20026;-69
2021/05/17 10:24:35;;;;;;;37.75;8.48;;;19.30;64.10;;;;;;5022070;28;20068;-67
2021/05/17 10:27:02;;;;;;;42.55;9.43;;;19.30;64.10;;;;;;5004786;28;20556;-68
2021/05/17 10:29:37;;;;;;;40.28;8.63;;;19.40;64.10;;;;;;5006600;28;20042;-70
2021/05/17 10:32:06;;;;;;;42.80;8.80;;;19.40;63.30;;;;;;4989138;28;20120;-67
2021/05/17 10:34:45;;;;;;;39.28;8.48;;;19.40;63.50;;;;;;4989245;28;20933;-70
2021/05/17 10:37:18;;;;;;;35.15;8.90;;;19.20;63.30;;;;;;5006616;28;20034;-69
2021/05/17 10:39:46;;;;;;;38.28;8.60;;;19.20;64.50;;;;;;5022730;28;20036;-69
2021/05/17 10:48:14;;;;;;;32.00;7.32;;;19.10;64.00;;;;;;5026743;28;20036;-69
2021/05/17 10:50:41;;;;;;;32.90;8.27;;;18.90;64.80;;;;;;5026095;28;20040;-69
2021/05/17 10:53:46;;;;;;;32.25;8.10;;;18.90;64.90;;;;;;5008254;28;20029;-69
2021/05/17 10:56:39;;;;;;;33.28;7.35;;;18.80;65.50;;;;;;5006185;28;20087;-69
2021/05/17 11:02:08;;;;;;;30.33;7.10;;;18.70;65.30;;;;;;5004733;28;20071;-70
2021/05/17 11:04:35;;;;;;;32.28;7.80;;;18.70;65.40;;;;;;4988549;28;20378;-72
2021/05/17 11:07:24;;;;;;;24.90;6.80;;;18.60;65.90;;;;;;4988034;28;20044;-69
2021/05/17 11:09:51;;;;;;;25.77;6.43;;;18.60;66.60;;;;;;4987115;28;20030;-69
2021/05/17 11:12:25;;;;;;;26.02;6.45;;;18.80;65.80;;;;;;5001066;28;20120;-69
2021/05/17 11:15:12;;;;;;;28.65;6.38;;;18.90;65.00;;;;;;5005357;28;20440;-69
2021/05/17 11:18:07;;;;;;;30.73;6.88;;;19.20;65.60;;;;;;4987224;28;20030;-69
2021/05/17 11:20:49;;;;;;;23.95;6.43;;;19.40;65.00;;;;;;4992343;28;20053;-70
2021/05/17 11:23:24;;;;;;;;;;;19.60;64.00;;;;;;5005867;28;20718;-69
2021/05/17 11:26:02;;;;;;;26.75;6.22;;;19.90;64.50;;;;;;4987849;28;19909;-68
2021/05/17 11:28:34;;;;;;;24.13;5.97;;;19.90;63.10;;;;;;5005596;28;20064;-69
2021/05/17 11:31:13;;;;;;;24.30;5.93;;;19.80;63.00;;;;;;4987506;28;20049;-69
2021/05/17 11:33:48;;;;;;;18.75;5.40;;;19.60;63.10;;;;;;4992301;28;20080;-69
2021/05/17 11:36:19;;;;;;;17.48;4.78;;;19.70;63.10;;;;;;4992006;28;20036;-70
2021/05/17 11:39:16;;;;;;;18.73;4.25;;;19.60;63.30;;;;;;4987459;28;20032;-72
2021/05/17 11:41:50;;;;;;;16.80;3.72;;;19.70;62.40;;;;;;5007134;28;20142;-71
2021/05/17 11:44:28;;;;;;;14.13;3.60;;;19.60;63.00;;;;;;4989610;28;20030;-74
2021/05/17 11:46:56;;;;;;;23.10;4.57;;;19.60;62.50;;;;;;4988071;28;20029;-73
2021/05/17 11:49:24;;;;;;;15.90;3.88;;;19.60;62.50;;;;;;5006985;28;20053;-74
2021/05/17 11:51:52;;;;;;;15.57;3.72;;;19.50;62.80;;;;;;4984275;28;20084;-72
2021/05/17 11:54:19;;;;;;;13.65;3.80;;;19.40;63.60;;;;;;5007424;28;20038;-68
2021/05/17 11:56:48;;;;;;;18.90;4.68;;;19.20;63.80;;;;;;5018292;28;20056;-69
2021/05/17 11:59:23;;;;;;;13.57;3.35;;;19.20;63.90;;;;;;4987955;28;20049;-68
2021/05/17 12:01:51;;;;;;;13.15;3.55;;;19.20;64.20;;;;;;5005237;28;20018;-71
2021/05/17 12:04:23;;;;;;;11.77;3.17;;;19.20;64.10;;;;;;5012561;28;20088;-70
2021/05/17 12:06:58;;;;;;;15.02;3.70;;;19.20;64.50;;;;;;5009472;28;20512;-69
2021/05/17 12:09:31;;;;;;;12.43;3.45;;;19.10;64.50;;;;;;5027799;28;20674;-70
2021/05/17 12:11:59;;;;;;;13.43;4.07;;;19.10;64.60;;;;;;5010324;28;20060;-70
2021/05/17 12:17:06;;;;;;;16.65;4.05;;;19.00;65.50;;;;;;5075065;23;20131;-64
2021/05/17 12:19:32;;;;;;;21.30;4.13;;;19.00;65.20;;;;;;5036301;28;20031;-63
2021/05/17 12:21:59;;;;;;;21.25;3.92;;;19.00;65.20;;;;;;5049457;28;20100;-64
2021/05/17 12:24:27;;;;;;;13.25;3.40;;;19.10;64.90;;;;;;5036136;28;20029;-63
2021/05/17 12:27:06;;;;;;;17.90;3.38;;;19.10;65.00;;;;;;5050798;28;20079;-64
2021/05/17 12:29:47;;;;;;;14.98;3.30;;;19.10;64.20;;;;;;5033728;28;20029;-63
2021/05/17 12:32:13;;;;;;;11.25;3.20;;;19.10;64.60;;;;;;5016536;28;20053;-66
2021/05/17 12:34:57;;;;;;;15.30;3.28;;;19.10;64.40;;;;;;5015932;28;20064;-63
2021/05/17 12:37:25;;;;;;;14.57;3.42;;;19.10;64.70;;;;;;5016848;28;20496;-62
2021/05/17 12:40:21;;;;;;;15.27;3.60;;;19.10;64.80;;;;;;5038166;28;20536;-62
2021/05/17 12:43:05;;;;;;;11.48;3.22;;;19.20;64.40;;;;;;5054369;28;20017;-63
2021/05/17 12:45:32;;;;;;;15.52;2.80;;;19.10;63.70;;;;;;5058551;28;20025;-63
2021/05/17 12:47:58;;;;;;;12.05;3.05;;;19.10;64.10;;;;;;5055266;28;20028;-64
2021/05/17 12:50:25;;;;;;;16.73;3.22;;;19.00;63.90;;;;;;5054229;28;20031;-65
2021/05/17 12:53:05;;;;;;;10.95;3.17;;;18.90;64.50;;;;;;5054138;28;20035;-63
2021/05/17 12:55:47;;;;;;;14.25;3.20;;;19.00;64.70;;;;;;5053618;28;20029;-65
2021/05/17 12:58:24;;;;;;;11.10;2.92;;;19.00;64.40;;;;;;5054128;28;20056;-63
2021/05/17 13:00:52;;;;;;;13.55;3.42;;;19.00;64.30;;;;;;5036091;28;20021;-63
2021/05/17 13:03:30;;;;;;;10.95;2.80;;;19.00;64.40;;;;;;5054001;28;20024;-64
2021/05/17 13:06:01;;;;;;;11.77;3.10;;;19.00;64.30;;;;;;5053871;28;20387;-64
2021/05/17 13:08:36;;;;;;;;;;;18.90;64.50;;;;;;5036200;28;20025;-64
2021/05/17 13:11:10;;;;;;;11.85;2.75;;;18.90;64.70;;;;;;5050382;28;20288;-65
2021/05/17 13:13:51;;;;;;;8.63;2.40;;;18.90;64.60;;;;;;5053582;28;20040;-64
2021/05/17 13:16:37;;;;;;;9.48;2.67;;;18.90;64.80;;;;;;5035238;28;20036;-64
2021/05/17 13:25:05;;;;;;;8.23;2.67;;;18.90;64.40;;;;;;5053212;28;20480;-64
2021/05/17 13:33:41;;;;;;;6.95;2.13;;;18.90;64.50;;;;;;5053456;28;20385;-64
2021/05/17 13:36:12;;;;;;;7.68;2.30;;;18.90;64.80;;;;;;5034812;28;20036;-63
2021/05/17 13:38:41;;;;;;;7.75;2.53;;;18.90;64.40;;;;;;5053332;28;20041;-63
2021/05/17 13:41:09;;;;;;;8.48;2.30;;;18.90;64.50;;;;;;5053175;28;20037;-63